• Join FlightAware (Why Join?)
  • Login
  • US Flag 
08:42PM EST


 

Airport Tracker/Info


-or-


 

Live Flight TrackerFlight Track Log ✈ AWE1212 ✈ 15-May-2013 ✈ KIAH - KCLT

Flight Track Log - Related Links

Times and Time Zones

All times are in EDT time to prevent confusion due to time zone crossing. See the AWE1212 flight status page for this flight to view local times or setup timezone preferences in your user account.

Time Position Orientation Groundspeed Altitude Reporting Facility
EDT Latitude Longitude Course Direction KTS MPH feet Rate Location/Type
03:15PM 29.9592 -95.3392 90° East 182 209 800  Level Houston Center
03:15PM 29.9475 -95.3042 111° Southeast 203 234 1,900 1,920 Climbing Houston Center
03:16PM 29.9425 -95.2253 94° East 260 299 4,000 1,080 Climbing Houston Center
03:17PM 29.9458 -95.1500 87° East 273 314 4,000  Level Houston Center
03:18PM 29.9834 -94.8311 90° East  Level FlightAware Approximate
03:18PM 29.9483 -95.1289 82° East 269 310 4,000  Level Houston Center
03:18PM 29.9519 -95.0578 87° East 275 316 5,800 2,100 Climbing Houston Center
03:19PM 29.9834 -94.7055 90° East  Level FlightAware Approximate
03:19PM 29.9542 -95.0408 81° East 274 315 6,200  Level Houston Center
03:19PM 29.9575 -94.9606 87° East 306 352 8,400 2,580 Climbing Houston Center
03:20PM 29.9833 -94.5799 90° East  Level FlightAware Approximate
03:20PM 29.9603 -94.9447 79° East 297 342 8,900  Level Houston Center
03:20PM 29.9650 -94.8608 86° East 315 362 12,100 3,540 Climbing Houston Center
03:21PM 29.9658 -94.8433 87° East 313 360 12,600 2,940 Climbing Houston Center
03:21PM 29.9697 -94.7589 87° East 320 368 15,100 2,700 Climbing Houston Center
03:22PM 29.9719 -94.7389 83° East 324 373 15,400 600 Climbing Houston Center
03:23PM 29.9828 -94.5892 85° East 388 447 16,000 1,020 Climbing Houston Center
03:24PM 29.9889 -94.4631 87° East 428 493 17,600 1,980 Climbing Houston Center
03:25PM 29.9981 -94.2903 86° East 447 514 20,100 2,220 Climbing Houston Center
03:26PM 30.0189 -94.1406 81° East 469 540 22,200 1,680 Climbing Houston Center
03:27PM 30.0383 -93.9828 82° East 489 563 23,600 1,980 Climbing Houston Center
03:28PM 30.0572 -93.8236 82° East 502 578 26,300 2,400 Climbing Houston Center
03:29PM 30.0756 -93.6672 82° East 500 575 28,600 2,460 Climbing Houston Center
03:30PM 30.0981 -93.4842 82° East 492 566 31,400 2,040 Climbing Houston Center
03:31PM 30.1156 -93.3322 82° East 485 558 32,900 1,500 Climbing Houston Center
03:32PM 30.1336 -93.1806 82° East 485 558 34,600 960 Climbing Houston Center
03:33PM 30.1564 -93.0275 80° East 486 559 35,000 180 Climbing Houston Center
03:34PM 30.1883 -92.8717 77° East 495 570 35,000  Level Houston Center
03:35PM 30.2244 -92.6831 77° East 501 577 35,000 -60 Level Houston Center
03:36PM 30.2556 -92.5267 77° East 502 578 34,900 -60 Descending Houston Center
03:37PM 30.2864 -92.3744 77° East 492 566 34,900  Level Houston Center
03:38PM 30.3133 -92.2258 78° East 478 550 35,000  Climbing Houston Center
03:39PM 30.3433 -92.0756 77° East 479 551 35,000  Level Houston Center
03:40PM 30.3764 -91.8969 78° East 476 548 35,000 -60 Level Houston Center
03:41PM 30.4044 -91.7483 78° East 474 545 34,900  Descending Houston Center
03:42PM 30.4319 -91.6025 78° East 474 545 35,000  Climbing Houston Center
03:43PM 30.4594 -91.4539 78° East 473 544 35,000  Level Houston Center
03:45PM 30.4894 -91.3028 77° East 482 555 35,000 -60 Level Houston Center
03:46PM 30.5958 -91.1575 50° Northeast 487 560 34,900  Descending Houston Center
03:47PM 30.6847 -91.0447 47° Northeast 476 548 35,000  Climbing Houston Center
03:48PM 30.7714 -90.9339 48° Northeast 468 539 35,000  Level Houston Center
03:49PM 30.8594 -90.8219 47° Northeast 467 537 35,000  Level Houston Center
03:50PM 30.9489 -90.7081 48° Northeast 470 541 35,000  Level Houston Center
03:51PM 31.0417 -90.5906 47° Northeast 482 555 35,000  Level Houston Center
03:52PM 31.1528 -90.4489 47° Northeast 489 563 35,000  Level Houston Center
03:53PM 31.2453 -90.3311 47° Northeast 490 564 35,000  Level Houston Center
03:54PM 31.3378 -90.2111 48° Northeast 495 570 35,000  Level Houston Center
03:55PM 31.4297 -90.0897 48° Northeast 496 571 35,000  Level Houston Center
03:56PM 31.5225 -89.9703 48° Northeast 494 568 35,000 -60 Level Houston Center
03:57PM 31.6117 -89.8478 49° Northeast 494 568 34,900  Descending Houston Center
03:58PM 31.7042 -89.7261 48° Northeast 497 572 35,000  Climbing Houston Center
03:59PM 31.8031 -89.5925 49° Northeast 493 567 35,000  Level Houston Center
04:00PM 31.9103 -89.4958 37° Northeast 491 565 35,000  Level Houston Center
04:01PM 32.0381 -89.4506 17° North 457 526 35,000  Level Memphis Center
04:02PM 32.1611 -89.4272 North 448 516 35,000  Level Memphis Center
04:03PM 32.2861 -89.3964 12° North 448 516 35,000  Level Memphis Center
04:04PM 32.4111 -89.3681 11° North 453 521 35,000  Level Memphis Center
04:05PM 32.5339 -89.3200 18° North 453 521 35,000  Level Memphis Center
04:06PM 32.6392 -89.1928 45° Northeast 460 529 35,000  Level Memphis Center
04:07PM 32.6919 -89.0417 67° East 453 521 35,000  Level Memphis Center
04:08PM 32.7278 -88.8806 75° East 471 542 35,000  Level Memphis Center
04:09PM 32.7633 -88.7244 75° East 481 554 35,000  Level Memphis Center
04:10PM 32.8008 -88.5606 75° East 494 568 35,000  Level Memphis Center
04:11PM 32.8361 -88.3992 75° East 494 568 35,000  Level Memphis Center
04:13PM 32.9161 -88.0178 76° East 500 575 35,000  Level Atlanta Center
04:14PM 32.9475 -87.8806 75° East 495 570 35,000  Level Atlanta Center
04:15PM 32.9794 -87.7186 77° East 490 564 35,000  Level Atlanta Center
04:16PM 33.0183 -87.5367 76° East 490 564 35,000  Level Atlanta Center
04:17PM 33.0500 -87.3744 77° East 495 570 35,000  Level Atlanta Center
04:18PM 33.0856 -87.2122 75° East 495 570 35,000  Level Atlanta Center
04:19PM 33.1139 -87.0819 75° East 501 577 35,000  Level Atlanta Center
04:20PM 33.1492 -86.9119 76° East 501 577 35,000  Level Atlanta Center
04:21PM 33.1822 -86.7492 76° East 500 575 35,000  Level Atlanta Center
04:22PM 33.2169 -86.5814 76° East 506 582 35,000  Level Atlanta Center
04:23PM 33.2494 -86.4233 76° East 506 582 35,000  Level Atlanta Center
04:24PM 33.2817 -86.2603 77° East 501 577 35,000  Level Atlanta Center
04:25PM 33.3136 -86.1019 76° East 496 571 35,000  Level Atlanta Center
04:26PM 33.3433 -85.9386 78° East 496 571 35,000  Level Atlanta Center
04:27PM 33.3772 -85.7653 77° East 496 571 35,000  Level Atlanta Center
04:28PM 33.4086 -85.6067 77° East 486 559 35,000  Level Atlanta Center
04:29PM 33.4419 -85.4428 76° East 491 565 35,000  Level Atlanta Center
04:30PM 33.4708 -85.2814 78° East 491 565 35,000  Level Atlanta Center
04:31PM 33.5014 -85.1175 77° East 497 572 35,000  Level Atlanta Center
04:32PM 33.5319 -84.9558 77° East 497 572 35,000  Level Atlanta Center
04:33PM 33.5622 -84.7942 77° East 497 572 35,000  Level Atlanta Center
04:34PM 33.5903 -84.6297 78° East 497 572 35,000  Level Atlanta Center
04:35PM 33.6181 -84.4678 78° East 490 564 35,000  Level Atlanta Center
04:36PM 33.6667 -84.3108 70° East 490 564 35,000  Level Atlanta Center
04:37PM 33.7086 -84.1486 73° East 502 578 35,000  Level Atlanta Center
04:38PM 33.7525 -83.9914 71° East 502 578 35,000  Level Atlanta Center
04:39PM 33.7942 -83.8489 71° East 502 578 35,000 -120 Level Atlanta Center
04:40PM 33.8356 -83.6961 72° East 496 571 34,800 -600 Descending Atlanta Center
04:41PM 33.8808 -83.5358 71° East 496 571 33,800 -960 Descending Atlanta Center
04:42PM 33.9239 -83.3803 72° East 487 560 32,900 -960 Descending Atlanta Center
04:43PM 33.9669 -83.2197 72° East 493 567 31,900 -960 Descending Atlanta Center
04:44PM 34.0264 -83.0714 64° Northeast 487 560 31,000 -960 Descending Atlanta Center
04:45PM 34.0919 -82.9275 61° Northeast 479 551 30,000 -960 Descending Atlanta Center
04:46PM 34.1614 -82.7861 59° Northeast 484 557 29,100 -960 Descending Atlanta Center
04:47PM 34.2350 -82.6342 60° Northeast 484 557 28,100 -1,440 Descending Atlanta Center
04:48PM 34.2978 -82.4897 62° Northeast 479 551 26,200 -1,800 Descending Atlanta Center
04:49PM 34.3669 -82.3478 59° Northeast 479 551 24,500 -1,920 Descending Atlanta Center
04:50PM 34.4275 -82.2056 63° Northeast 479 551 22,400 -2,280 Descending Atlanta Center
04:51PM 34.4922 -82.0681 60° Northeast 473 544 20,000 -2,400 Descending Atlanta Center
04:52PM 34.5506 -81.9353 62° Northeast 456 525 17,600 -2,220 Descending Atlanta Center
04:53PM 34.6089 -81.8128 60° Northeast 441 507 15,600 -1,920 Descending Atlanta Center
04:54PM 34.6611 -81.7053 59° Northeast 419 482 13,800 -2,100 Descending Atlanta Center
04:55PM 34.6911 -81.6389 61° Northeast 389 448 12,600 -1,860 Descending Atlanta Center
04:55PM 34.7111 -81.5953 61° Northeast 382 440 12,000 -540 Descending Atlanta Center
04:56PM 34.7392 -81.5364 60° Northeast 333 383 12,100 60 Climbing Atlanta Center
04:56PM 34.7658 -81.5053 44° Northeast 344 396 12,100  Level Atlanta Center
04:57PM 34.8022 -81.4536 49° Northeast 327 376 12,100  Level Atlanta Center
04:57PM 34.8367 -81.4119 45° Northeast 328 377 12,100 -120 Level Atlanta Center
04:58PM 34.8711 -81.3653 48° Northeast 373 429 12,000 -420 Descending Atlanta Center
04:58PM 34.9097 -81.3161 46° Northeast 352 405 11,700 -660 Descending Atlanta Center
04:59PM 34.9422 -81.2769 45° Northeast 404 465 11,400 -1,020 Descending Atlanta Center
04:59PM 34.9869 -81.2197 46° Northeast 381 438 10,700 -1,200 Descending Atlanta Center
05:00PM 35.0172 -81.1806 47° Northeast 383 441 10,200 -900 Descending Atlanta Center
05:00PM 35.0536 -81.1311 48° Northeast 369 425 9,800 -840 Descending Atlanta Center
05:01PM 35.0819 -81.0944 47° Northeast 310 357 9,400 -600 Descending Atlanta Center
05:01PM 35.1128 -81.0656 37° Northeast 317 365 9,200 -420 Descending Atlanta Center
05:02PM 35.1544 -81.0667 359° North 262 302 9,000 -540 Descending Atlanta Center
05:02PM 35.1900 -81.0678 359° North 259 298 8,700 -1,260 Descending Atlanta Center
05:03PM 35.2317 -81.0739 353° North 242 278 7,600 -1,800 Descending Atlanta Center
05:04PM 35.2925 -81.0794 356° North 243 280 6,000 -1,260 Descending Atlanta Center
05:05PM 35.3719 -81.0867 356° North 228 262 5,000 -600 Descending Atlanta Center
05:06PM 35.4133 -81.0775 10° North 190 219 4,900 -420 Descending Atlanta Center
05:07PM 35.4139 -81.0114 89° East 189 217 4,200 -660 Descending Atlanta Center
05:08PM 35.3653 -80.9853 156° South 178 205 3,500 -720 Descending Atlanta Center